Weather at Milano Linate Airport

Public forecast

Using degrees Celsius for public forecast. Weather courtesy of forecast.io.

Current aviation weather report (METAR) for Milano Linate Airport

2024/04/13 13:20 (retrieved 16 minutes ago)

LIML 131320Z 20003KT 140V260 CAVOK 26/14 Q1026 NOSIG

Aviation forecast (TAF) for Milano Linate Airport

2024/04/13 12:21 (retrieved 1 hour ago)

TAF LIML 131100Z 1312/1412 VRB04KT CAVOK TEMPO 1323/1403 3000 BR